Ana Sayfa
METAR-TAF:

METAR-TAF

Havaalanları :

Bahreyn, Bahreyn

Enlem: 26-16N, Boylam: 050-39E, yükseklik: 2 m

Güncel hava durumu gözlemi

Rapor saat 06:30 UTC de 16 dakika önce yapıldı.
Rüzgar kuzeybatıdan 6 kt
Sıcaklık 35°C
Nem 56%
Basınç 1008 hPa
Görüş mesafesi 10 km veya daha fazla
1500 m altında bulut yok ve kümülonimbus yok

METAR: OBBI 230630Z 31006KT CAVOK 35/25 Q1008 NOSIG

Saat: 09:46 (06:46 UTC)

Tahmin

Rapor saat 05:00 UTC de 1 saat ve 46 dakika önce yapıldı.
Ayın 23'si saat 06 UTC'den ayın 24'si saat 12 UTC'ye kadar geçerli Tahmin
Rüzgar kuzeydan 10 kt
Görüş mesafesi 10 km veya daha fazla
1500 m altında bulut yok ve kümülonimbus yok
Dönüşüyor
ayın 23'si saat 16 UTC'den ayın 23'si saat 18 UTC'ye kadar
Rüzgar değişken yönden 5 kt
Olasılık 30% :
Geçici
ayın 23'si saat 23 UTC'den ayın 24'si saat 05 UTC'ye kadar
Görüş mesafesi: 4000 m
Toz Pusu

TAF: OBBI 230500Z 2306/2412 01010KT CAVOK BECMG 2316/2318 VRB05KT PROB30 TEMPO 2323/2405 4000 HZ

4.000'den fazla havaalanı için hava durumu gözlemleri ve tahminleri (METAR ve TAF raporları).

Kullanılabilir istasyonlar harita üzerinde sarı ve kırmızı noktalarla gösterilir.

İstasyonun adını görmek için fareyi noktanın üzerinde gezdirin.

Sonrasında hava gözlem ve tahminlerini görmek için tıklayın.

Haritayı değiştirmek için: yaklaştırmak için siyah artı işaretli yeşil düğmeye ve uzaklaştırmak için de eksi işaretli düğmeye hızla tıklayın; bitişik haritalar için yeşil okları kullanın.


METAR-TAF: